createdAt,value
2019-04-26T02:31:01.031Z,58.63
2019-04-26T02:33:02.638Z,58.85
2019-04-26T02:35:04.265Z,59.08
2019-04-26T02:37:05.864Z,58.86
2019-04-26T02:39:07.504Z,58.87
2019-04-26T02:41:09.824Z,59.56
2019-04-26T02:43:11.428Z,55.82
2019-04-26T02:45:36.005Z,54.41
2019-04-26T02:47:38.488Z,55.45
2019-04-26T02:49:39.537Z,55.49
2019-04-26T02:51:41.138Z,55.69
2019-04-26T02:53:42.724Z,56.09
2019-04-26T02:55:44.365Z,56.11
2019-04-26T02:57:45.956Z,56.22
2019-04-26T02:59:47.602Z,56.48
2019-04-26T03:01:49.188Z,56.85
2019-04-26T03:03:53.565Z,56.70
2019-04-26T03:05:52.450Z,56.82
2019-04-26T03:07:54.064Z,56.91
2019-04-26T03:09:55.724Z,56.90
2019-04-26T03:11:57.336Z,56.75
2019-04-26T03:14:01.448Z,56.62
2019-04-26T03:16:07.748Z,56.57
2019-04-26T03:18:14.961Z,56.57
2019-04-26T03:20:16.613Z,56.52
2019-04-26T03:22:18.207Z,56.58
2019-04-26T03:24:19.817Z,56.57
2019-04-26T03:26:21.558Z,56.46
2019-04-26T03:28:23.102Z,56.27
2019-04-26T03:30:24.737Z,56.16
2019-04-26T03:32:26.356Z,56.00
2019-04-26T03:34:27.957Z,55.90
2019-04-26T03:36:29.570Z,55.83
2019-04-26T03:38:46.084Z,55.79
2019-04-26T03:40:47.723Z,55.77
2019-04-26T03:42:49.345Z,55.76
2019-04-26T03:44:50.959Z,55.79
2019-04-26T03:46:52.544Z,55.72
2019-04-26T03:48:54.139Z,55.60
2019-04-26T03:50:55.730Z,55.50
2019-04-26T03:52:57.320Z,55.46
2019-04-26T03:54:58.933Z,55.47
2019-04-26T03:57:13.580Z,55.46
2019-04-26T03:59:27.932Z,55.52
2019-04-26T04:01:35.410Z,55.55
2019-04-26T04:03:41.617Z,55.59
2019-04-26T04:05:41.515Z,55.61
2019-04-26T04:07:47.289Z,55.58
2019-04-26T04:09:44.756Z,55.53
2019-04-26T04:11:46.700Z,55.55
2019-04-26T04:13:51.018Z,55.52
2019-04-26T04:15:48.558Z,55.56
2019-04-26T04:17:50.268Z,55.54
2019-04-26T04:19:52.565Z,55.52
2019-04-26T04:21:54.149Z,55.51
2019-04-26T04:23:55.740Z,55.56
2019-04-26T04:25:57.364Z,55.52
2019-04-26T04:27:58.941Z,55.47
2019-04-26T04:30:00.680Z,55.46
2019-04-26T04:32:02.289Z,55.29
2019-04-26T04:34:03.883Z,55.16
2019-04-26T04:36:05.493Z,55.02
2019-04-26T04:38:09.474Z,55.00
2019-04-26T04:40:08.869Z,54.97
2019-04-26T04:42:25.346Z,54.97
2019-04-26T04:44:26.952Z,54.98
2019-04-26T04:46:29.201Z,54.87
2019-04-26T04:48:30.786Z,54.80
2019-04-26T04:50:32.387Z,54.77
2019-04-26T04:52:34.022Z,54.73
2019-04-26T04:54:35.599Z,54.74
2019-04-26T04:56:37.244Z,54.72
2019-04-26T04:58:38.840Z,54.77
2019-04-26T05:00:55.294Z,54.76
2019-04-26T05:02:57.848Z,54.79
2019-04-26T05:05:03.930Z,54.86
2019-04-26T05:07:07.418Z,54.95
2019-04-26T05:09:09.039Z,54.84
2019-04-26T05:11:10.708Z,54.75
2019-04-26T05:13:12.294Z,54.63
2019-04-26T05:15:13.880Z,54.55
2019-04-26T05:17:15.520Z,54.52
2019-04-26T05:19:22.687Z,54.42
2019-04-26T05:21:24.308Z,54.35
2019-04-26T05:23:25.946Z,54.29
2019-04-26T05:25:33.160Z,54.27
2019-04-26T05:27:38.213Z,54.24
2019-04-26T05:29:41.588Z,54.17
2019-04-26T05:31:44.643Z,54.13
2019-04-26T05:33:44.824Z,54.07
2019-04-26T05:35:49.091Z,54.08
2019-04-26T05:37:50.988Z,54.10
2019-04-26T05:39:51.530Z,54.11
2019-04-26T05:41:53.620Z,54.16
2019-04-26T05:43:55.999Z,54.15
2019-04-26T05:45:58.665Z,54.19
2019-04-26T05:48:11.214Z,54.22
2019-04-26T05:50:07.220Z,54.26
2019-04-26T05:52:12.215Z,54.28
2019-04-26T05:54:11.018Z,54.31
2019-04-26T05:56:13.128Z,54.31
2019-04-26T05:58:14.703Z,54.37
2019-04-26T06:00:17.923Z,54.37
2019-04-26T06:02:19.499Z,54.41
2019-04-26T06:04:25.987Z,54.44
2019-04-26T06:06:28.038Z,54.47
2019-04-26T06:08:46.398Z,54.48
2019-04-26T06:10:48.005Z,54.57
2019-04-26T06:12:51.052Z,54.57
2019-04-26T06:15:02.044Z,54.59
2019-04-26T06:17:10.200Z,54.60
2019-04-26T06:19:11.802Z,54.68
2019-04-26T06:21:13.604Z,54.74
2019-04-26T06:23:15.192Z,54.74
2019-04-26T06:25:17.512Z,54.76
2019-04-26T06:27:20.957Z,54.77
2019-04-26T06:29:22.580Z,54.83
2019-04-26T06:31:24.154Z,54.83
2019-04-26T06:33:25.761Z,54.87
2019-04-26T06:35:27.390Z,54.86
2019-04-26T06:37:29.450Z,54.90
2019-04-26T06:39:31.058Z,54.93
2019-04-26T06:41:32.704Z,54.94
2019-04-26T06:43:34.315Z,54.94
2019-04-26T06:45:50.864Z,54.95
2019-04-26T06:47:52.459Z,54.97
2019-04-26T06:50:10.035Z,54.98
2019-04-26T06:52:10.575Z,54.97
2019-04-26T06:54:12.183Z,54.97
2019-04-26T06:56:19.637Z,54.97
2019-04-26T06:58:21.240Z,55.00
2019-04-26T07:00:22.842Z,54.98
2019-04-26T07:02:24.492Z,54.99
2019-04-26T07:04:26.128Z,55.00
2019-04-26T07:06:34.800Z,55.01
2019-04-26T07:08:29.392Z,55.02
2019-04-26T07:10:30.976Z,55.02
2019-04-26T07:12:34.079Z,55.03
2019-04-26T07:14:35.691Z,55.03
2019-04-26T07:16:37.308Z,55.03
2019-04-26T07:18:38.928Z,55.03
2019-04-26T07:20:42.314Z,55.01
2019-04-26T07:22:54.717Z,55.02
2019-04-26T07:24:56.305Z,54.99
2019-04-26T07:26:57.888Z,55.02
2019-04-26T07:29:01.159Z,55.02
2019-04-26T07:31:02.561Z,55.00
2019-04-26T07:33:02.772Z,55.00
2019-04-26T07:35:05.125Z,55.00
2019-04-26T07:37:07.031Z,54.98
2019-04-26T07:39:18.506Z,54.89
2019-04-26T07:41:13.124Z,54.75
2019-04-26T07:43:24.532Z,54.52
2019-04-26T07:45:31.783Z,54.27
2019-04-26T07:47:33.372Z,54.10
2019-04-26T07:49:34.992Z,53.89
2019-04-26T07:51:36.576Z,53.66
2019-04-26T07:53:38.184Z,53.55
2019-04-26T07:55:39.787Z,53.42
2019-04-26T07:57:41.376Z,53.40
2019-04-26T07:59:42.967Z,53.32
2019-04-26T08:01:46.201Z,53.21
2019-04-26T08:03:47.820Z,53.19
2019-04-26T08:05:49.556Z,53.12
2019-04-26T08:07:51.168Z,53.15
2019-04-26T08:09:59.920Z,53.11
2019-04-26T08:11:54.464Z,53.11
2019-04-26T08:13:56.080Z,53.07
2019-04-26T08:16:04.915Z,53.06
2019-04-26T08:18:05.254Z,53.03
2019-04-26T08:20:09.253Z,53.02
2019-04-26T08:22:18.005Z,53.02
2019-04-26T08:24:14.843Z,53.01
2019-04-26T08:26:16.456Z,53.00
2019-04-26T08:28:18.044Z,53.01
2019-04-26T08:30:22.636Z,53.00
2019-04-26T08:32:21.271Z,53.01
2019-04-26T08:34:28.961Z,53.04
2019-04-26T08:36:27.161Z,53.12
2019-04-26T08:38:26.286Z,53.19
2019-04-26T08:40:30.988Z,53.18
2019-04-26T08:42:31.149Z,53.30
2019-04-26T08:44:38.566Z,53.50
2019-04-26T08:46:45.827Z,53.60
2019-04-26T08:48:48.240Z,53.50
2019-04-26T08:50:50.303Z,53.33
2019-04-26T08:52:51.891Z,53.28
2019-04-26T08:54:53.476Z,53.31
2019-04-26T08:56:55.120Z,53.25
2019-04-26T08:58:56.736Z,53.32
2019-04-26T09:00:59.206Z,53.34
2019-04-26T09:03:11.301Z,53.32
2019-04-26T09:05:24.284Z,53.27
2019-04-26T09:07:30.734Z,53.37
2019-04-26T09:09:32.489Z,53.39
2019-04-26T09:11:35.019Z,53.29
2019-04-26T09:13:35.651Z,53.34
2019-04-26T09:15:37.300Z,53.22
2019-04-26T09:17:38.907Z,53.06
2019-04-26T09:19:40.498Z,53.12
2019-04-26T09:21:42.139Z,53.26
2019-04-26T09:23:51.841Z,53.30
2019-04-26T09:25:59.001Z,53.49
2019-04-26T09:27:58.918Z,53.55
2019-04-26T09:30:05.022Z,53.58
2019-04-26T09:32:07.994Z,53.59
2019-04-26T09:34:15.343Z,53.70
2019-04-26T09:36:18.188Z,53.74
2019-04-26T09:38:18.612Z,53.69
2019-04-26T09:40:22.702Z,53.64
2019-04-26T09:42:28.412Z,53.58
2019-04-26T09:44:29.985Z,53.66
2019-04-26T09:46:48.479Z,53.74
2019-04-26T09:49:08.542Z,53.67
2019-04-26T09:51:09.497Z,53.56
2019-04-26T09:53:11.152Z,53.40
2019-04-26T09:55:12.743Z,53.23
2019-04-26T09:57:14.405Z,53.28
2019-04-26T09:59:16.019Z,53.24
2019-04-26T10:01:19.728Z,53.27
2019-04-26T10:03:19.304Z,53.26
2019-04-26T10:05:22.275Z,53.39
2019-04-26T10:07:22.605Z,53.42
2019-04-26T10:09:24.243Z,53.29
2019-04-26T10:11:25.835Z,53.19
2019-04-26T10:13:29.340Z,53.10
2019-04-26T10:15:50.667Z,53.08
2019-04-26T10:17:52.270Z,53.06
2019-04-26T10:19:53.854Z,53.16
2019-04-26T10:21:55.576Z,53.33
2019-04-26T10:23:57.184Z,53.40
2019-04-26T10:25:58.812Z,53.35
2019-04-26T10:28:00.420Z,53.45
2019-04-26T10:30:07.783Z,53.51
2019-04-26T10:32:03.717Z,53.39
2019-04-26T10:34:07.781Z,53.31
2019-04-26T10:36:06.971Z,53.21
2019-04-26T10:38:08.596Z,53.15
2019-04-26T10:40:10.184Z,53.15
2019-04-26T10:42:11.797Z,53.22
2019-04-26T10:44:13.406Z,53.25
2019-04-26T10:46:15.052Z,53.26
2019-04-26T10:48:16.644Z,53.28
2019-04-26T10:50:18.252Z,53.22
2019-04-26T10:52:23.386Z,53.17
2019-04-26T10:54:24.993Z,53.23
2019-04-26T10:56:29.163Z,53.34
2019-04-26T10:58:36.216Z,53.40
2019-04-26T11:00:36.830Z,53.44
2019-04-26T11:02:38.442Z,53.42
2019-04-26T11:04:41.445Z,53.41
2019-04-26T11:06:41.688Z,53.42
2019-04-26T11:08:43.304Z,53.41
2019-04-26T11:10:48.885Z,53.42
2019-04-26T11:12:46.569Z,53.51
2019-04-26T11:14:48.204Z,53.51
2019-04-26T11:16:49.794Z,53.47
2019-04-26T11:18:51.385Z,53.39
2019-04-26T11:20:52.972Z,53.33
2019-04-26T11:22:54.606Z,53.38
2019-04-26T11:24:56.218Z,53.37
2019-04-26T11:26:57.833Z,53.32
2019-04-26T11:28:59.444Z,53.26
2019-04-26T11:31:01.036Z,53.23
2019-04-26T11:33:02.624Z,53.23
2019-04-26T11:35:04.268Z,53.30
2019-04-26T11:37:05.880Z,53.36
2019-04-26T11:39:07.568Z,53.40
2019-04-26T11:41:09.322Z,53.42
2019-04-26T11:43:10.748Z,53.34
2019-04-26T11:45:14.741Z,53.23
2019-04-26T11:47:14.042Z,53.16
2019-04-26T11:49:15.632Z,53.21
2019-04-26T11:51:17.225Z,53.21
2019-04-26T11:53:18.828Z,53.15
2019-04-26T11:55:20.436Z,53.10
2019-04-26T11:57:22.080Z,53.16
2019-04-26T11:59:26.966Z,53.13
2019-04-26T12:01:25.340Z,53.21
2019-04-26T12:03:26.915Z,53.21
2019-04-26T12:05:43.420Z,53.24
2019-04-26T12:07:48.856Z,53.30
2019-04-26T12:09:50.953Z,53.31
2019-04-26T12:12:04.038Z,53.30
2019-04-26T12:13:55.308Z,53.29
2019-04-26T12:15:55.830Z,53.34
2019-04-26T12:17:58.690Z,53.37
2019-04-26T12:19:59.092Z,53.38
2019-04-26T12:22:04.285Z,53.42
2019-04-26T12:24:02.402Z,53.47
2019-04-26T12:26:04.097Z,53.47
2019-04-26T12:28:06.343Z,53.55
2019-04-26T12:30:07.474Z,53.54
2019-04-26T12:32:09.090Z,53.60
2019-04-26T12:34:14.172Z,53.66
2019-04-26T12:36:13.343Z,53.67
2019-04-26T12:38:14.030Z,53.67
2019-04-26T12:40:15.616Z,53.66
2019-04-26T12:42:17.220Z,53.64
2019-04-26T12:44:18.811Z,53.64
2019-04-26T12:46:33.184Z,53.62
2019-04-26T12:48:34.836Z,53.60
2019-04-26T12:50:37.757Z,53.59
2019-04-26T12:52:38.052Z,53.62
2019-04-26T12:54:42.987Z,53.65
2019-04-26T12:56:41.328Z,53.71
2019-04-26T12:58:45.638Z,53.70
2019-04-26T13:00:53.790Z,53.64
2019-04-26T13:02:46.284Z,53.59
2019-04-26T13:04:47.877Z,53.48
2019-04-26T13:06:54.316Z,53.40
2019-04-26T13:08:56.111Z,53.28
2019-04-26T13:10:58.212Z,53.21
2019-04-26T13:12:59.804Z,53.30
2019-04-26T13:15:05.287Z,53.31
2019-04-26T13:17:10.292Z,53.33
2019-04-26T13:19:11.918Z,53.39
2019-04-26T13:21:13.513Z,53.41
2019-04-26T13:23:15.147Z,53.44
2019-04-26T13:25:26.199Z,53.52
2019-04-26T13:27:18.423Z,53.52
2019-04-26T13:29:20.208Z,53.41
2019-04-26T13:31:21.849Z,53.34
2019-04-26T13:33:27.396Z,53.30
2019-04-26T13:35:25.212Z,53.31
2019-04-26T13:37:26.787Z,53.26
2019-04-26T13:39:28.412Z,53.18
2019-04-26T13:41:30.028Z,53.15
2019-04-26T13:43:31.639Z,53.18
2019-04-26T13:45:33.950Z,53.20
2019-04-26T13:47:41.495Z,53.31
2019-04-26T13:49:48.210Z,53.41
2019-04-26T13:51:46.432Z,53.52
2019-04-26T13:53:48.019Z,53.58
2019-04-26T13:55:49.655Z,53.63
2019-04-26T13:57:51.231Z,53.71
2019-04-26T13:59:52.826Z,53.69
2019-04-26T14:01:54.412Z,53.70
2019-04-26T14:03:56.094Z,53.67
2019-04-26T14:05:57.804Z,53.67
2019-04-26T14:07:59.412Z,53.69
2019-04-26T14:10:01.056Z,53.73
2019-04-26T14:12:17.526Z,53.75
2019-04-26T14:14:04.324Z,53.80
2019-04-26T14:16:05.907Z,53.78
2019-04-26T14:18:07.552Z,53.76
2019-04-26T14:20:09.171Z,53.79
2019-04-26T14:22:10.792Z,53.79
2019-04-26T14:24:19.585Z,53.79
2019-04-26T14:26:20.527Z,53.82
2019-04-26T14:28:23.947Z,53.89
2019-04-26T14:30:23.806Z,53.87
2019-04-26T14:32:25.398Z,53.89
2019-04-26T14:34:27.012Z,53.96
2019-04-26T14:36:28.629Z,53.94
2019-04-26T14:38:39.343Z,53.96
2019-04-26T14:40:31.948Z,53.96
2019-04-26T14:42:38.156Z,53.93
2019-04-26T14:44:35.184Z,53.96
2019-04-26T14:46:48.166Z,53.97
2019-04-26T14:48:40.540Z,53.98
2019-04-26T14:50:40.255Z,54.02
2019-04-26T14:52:41.844Z,54.04
2019-04-26T14:54:46.045Z,54.08
2019-04-26T14:56:52.036Z,54.09
2019-04-26T14:58:47.022Z,54.14
2019-04-26T15:01:03.070Z,54.13
2019-04-26T15:03:20.908Z,54.17
2019-04-26T15:05:25.404Z,54.17
2019-04-26T15:07:28.266Z,54.18
2019-04-26T15:09:33.145Z,54.19
2019-04-26T15:11:32.283Z,54.24
2019-04-26T15:13:36.246Z,54.23
2019-04-26T15:15:34.641Z,54.21
2019-04-26T15:17:35.280Z,54.20
2019-04-26T15:19:40.218Z,54.23
2019-04-26T15:21:38.581Z,54.28
2019-04-26T15:23:40.223Z,54.24
2019-04-26T15:25:48.100Z,54.24
2019-04-26T15:27:44.191Z,54.29
2019-04-26T15:29:45.180Z,54.28
2019-04-26T15:31:46.804Z,54.31
2019-04-26T15:33:49.973Z,54.32
2019-04-26T15:35:50.094Z,54.30
2019-04-26T15:37:53.333Z,54.30
2019-04-26T15:39:55.147Z,54.25
2019-04-26T15:42:04.985Z,54.25
2019-04-26T15:44:24.847Z,54.22
2019-04-26T15:46:48.677Z,54.15
2019-04-26T15:49:05.170Z,54.11
2019-04-26T15:51:05.630Z,54.21
2019-04-26T15:53:12.752Z,54.22
2019-04-26T15:55:08.939Z,54.20
2019-04-26T15:57:12.091Z,54.28
2019-04-26T15:59:12.798Z,54.28
2019-04-26T16:01:13.976Z,54.29
2019-04-26T16:03:15.551Z,54.31
2019-04-26T16:05:17.138Z,54.33
2019-04-26T16:07:27.243Z,54.37
2019-04-26T16:09:21.272Z,54.34
2019-04-26T16:11:22.032Z,54.20
2019-04-26T16:13:24.162Z,53.76
2019-04-26T16:15:25.256Z,53.74
2019-04-26T16:17:26.948Z,52.85
2019-04-26T16:19:28.650Z,52.21
2019-04-26T16:21:30.303Z,51.94
2019-04-26T16:23:39.413Z,51.79
2019-04-26T16:25:34.430Z,50.56
2019-04-26T16:27:35.227Z,50.65
2019-04-26T16:29:58.295Z,50.69
2019-04-26T16:31:58.253Z,50.28
2019-04-26T16:34:10.515Z,49.90
2019-04-26T16:36:06.272Z,50.08
2019-04-26T16:38:18.805Z,50.02
2019-04-26T16:40:14.287Z,50.07
2019-04-26T16:42:15.897Z,50.03
2019-04-26T16:44:19.257Z,49.90
2019-04-26T16:46:20.361Z,50.24
2019-04-26T16:48:22.244Z,50.57
2019-04-26T16:50:31.233Z,50.72
2019-04-26T16:52:24.225Z,51.42
2019-04-26T16:54:26.840Z,51.03
2019-04-26T16:56:28.343Z,50.45
2019-04-26T16:58:30.891Z,51.25
2019-04-26T17:00:50.120Z,51.36
2019-04-26T17:02:36.782Z,51.30
2019-04-26T17:04:36.266Z,52.11
2019-04-26T17:06:44.352Z,52.08
2019-04-26T17:08:42.887Z,52.17
2019-04-26T17:10:40.059Z,52.37
2019-04-26T17:12:42.271Z,52.25
2019-04-26T17:14:47.742Z,51.75
2019-04-26T17:16:45.005Z,51.62
2019-04-26T17:18:46.620Z,51.55
2019-04-26T17:20:48.356Z,51.40
2019-04-26T17:22:59.631Z,51.41
2019-04-26T17:24:58.940Z,51.38
2019-04-26T17:27:01.148Z,51.37
2019-04-26T17:29:02.735Z,51.63
2019-04-26T17:31:04.416Z,51.74
2019-04-26T17:33:06.115Z,52.25
2019-04-26T17:35:07.797Z,51.68
2019-04-26T17:37:12.768Z,51.61
2019-04-26T17:39:16.961Z,51.64
2019-04-26T17:41:13.819Z,52.17
2019-04-26T17:43:14.490Z,52.11
2019-04-26T17:45:16.090Z,52.53
2019-04-26T17:47:20.156Z,52.17
2019-04-26T17:49:21.429Z,52.23
2019-04-26T17:51:23.275Z,52.48
2019-04-26T17:53:28.759Z,52.62
2019-04-26T17:55:25.832Z,52.70
2019-04-26T17:57:34.870Z,52.74
2019-04-26T17:59:34.690Z,52.73
2019-04-26T18:01:42.847Z,53.13
2019-04-26T18:03:33.201Z,52.65
2019-04-26T18:05:49.985Z,53.13
2019-04-26T18:07:42.905Z,53.43
2019-04-26T18:09:43.981Z,53.64
2019-04-26T18:11:41.130Z,53.48
2019-04-26T18:13:41.507Z,53.45
2019-04-26T18:15:45.147Z,53.39
2019-04-26T18:17:59.670Z,53.35
2019-04-26T18:20:05.185Z,53.41
2019-04-26T18:22:04.733Z,52.56
2019-04-26T18:24:06.355Z,50.78
2019-04-26T18:26:07.964Z,51.91
2019-04-26T18:28:14.673Z,51.84
2019-04-26T18:30:13.613Z,51.33
2019-04-26T18:32:13.232Z,51.18
2019-04-26T18:34:14.841Z,51.63
2019-04-26T18:36:16.441Z,51.61
2019-04-26T18:38:18.980Z,51.78
2019-04-26T18:40:21.459Z,51.89
2019-04-26T18:42:22.389Z,51.36
2019-04-26T18:44:35.830Z,51.50
2019-04-26T18:46:26.204Z,51.32
2019-04-26T18:48:27.792Z,51.86
2019-04-26T18:50:32.721Z,52.33
2019-04-26T18:52:31.047Z,51.96
2019-04-26T18:54:37.256Z,52.43
2019-04-26T18:56:40.436Z,52.95
2019-04-26T18:58:40.524Z,52.24
2019-04-26T19:00:43.681Z,52.37
2019-04-26T19:02:43.803Z,52.81
2019-04-26T19:04:48.088Z,53.23
2019-04-26T19:06:47.194Z,53.18
2019-04-26T19:08:52.229Z,53.07
2019-04-26T19:11:00.514Z,52.42
2019-04-26T19:12:56.434Z,52.35
2019-04-26T19:15:11.332Z,51.95
2019-04-26T19:17:15.092Z,52.11
2019-04-26T19:19:31.568Z,52.17
2019-04-26T19:21:39.549Z,52.18
2019-04-26T19:23:37.573Z,52.33
2019-04-26T19:25:41.239Z,52.49
2019-04-26T19:27:48.217Z,52.69
2019-04-26T19:29:52.408Z,52.61
2019-04-26T19:31:56.468Z,52.79
2019-04-26T19:33:56.069Z,52.85
2019-04-26T19:35:57.354Z,52.86
2019-04-26T19:37:58.963Z,52.41
2019-04-26T19:40:02.873Z,52.54
2019-04-26T19:42:02.554Z,52.96
2019-04-26T19:44:03.956Z,52.95
2019-04-26T19:46:07.388Z,53.40
2019-04-26T19:48:19.167Z,53.72
2019-04-26T19:50:22.181Z,53.92
2019-04-26T19:52:39.567Z,54.47
2019-04-26T19:54:55.197Z,54.37
2019-04-26T19:57:01.018Z,54.26
2019-04-26T19:58:59.320Z,53.82
2019-04-26T20:01:01.979Z,53.82
2019-04-26T20:03:02.592Z,53.36
2019-04-26T20:05:06.508Z,52.61
2019-04-26T20:07:05.870Z,53.91
2019-04-26T20:09:07.470Z,53.73
2019-04-26T20:11:12.892Z,53.58
2019-04-26T20:13:15.220Z,53.18
2019-04-26T20:15:25.127Z,53.63
2019-04-26T20:17:19.750Z,53.35
2019-04-26T20:19:17.922Z,53.54
2019-04-26T20:21:17.326Z,54.14
2019-04-26T20:23:19.702Z,53.71
2019-04-26T20:25:22.242Z,53.90
2019-04-26T20:27:25.232Z,53.66
2019-04-26T20:29:23.908Z,53.82
2019-04-26T20:31:47.843Z,53.59
2019-04-26T20:33:47.976Z,54.39
2019-04-26T20:35:49.571Z,55.04
2019-04-26T20:37:52.073Z,54.72
2019-04-26T20:40:15.406Z,54.22
2019-04-26T20:42:01.154Z,54.29
2019-04-26T20:44:04.913Z,54.69
2019-04-26T20:46:13.209Z,49.79
2019-04-26T20:47:59.718Z,53.10
2019-04-26T20:50:03.035Z,53.56
2019-04-26T20:52:02.967Z,52.83
2019-04-26T20:54:04.575Z,53.30
2019-04-26T20:56:09.953Z,52.76
2019-04-26T20:58:08.733Z,52.81
